Time;durP1;ratioP1;P1;durP2;ratioP2;P2;SDS_P1;SDS_P2;PMS_P1;PMS_P2;Temp;Humidity;BMP_temperature;BMP_pressure;BME280_temperature;BME280_humidity;BME280_pressure;Samples;Min_cycle;Max_cycle;Signal;HPM_P1;HPM_P2
2022/11/10 00:01:29;;;;;;;73.23;11.57;;;11.70;99.90;;;;;;5079262;28;20175;-87
2022/11/10 00:03:56;;;;;;;68.03;10.80;;;11.70;99.90;;;;;;5079853;28;20255;-87
2022/11/10 00:06:22;;;;;;;70.72;9.63;;;11.60;99.90;;;;;;5080708;28;20258;-87
2022/11/10 00:08:48;;;;;;;70.87;10.47;;;11.60;99.90;;;;;;5080345;28;20195;-87
2022/11/10 00:11:14;;;;;;;69.60;10.17;;;11.50;99.90;;;;;;5079145;28;20267;-87
2022/11/10 00:19:08;;;;;;;69.22;9.75;;;11.60;99.90;;;;;;5080927;28;20183;-87
2022/11/10 00:21:35;;;;;;;82.90;9.93;;;11.60;99.90;;;;;;5080501;28;20167;-87
2022/11/10 00:24:10;;;;;;;75.60;10.98;;;11.60;99.90;;;;;;5079319;28;20512;-87
2022/11/10 00:26:35;;;;;;;70.13;9.07;;;11.50;99.90;;;;;;5079432;28;20250;-87
2022/11/10 00:29:01;;;;;;;69.43;9.40;;;11.50;99.90;;;;;;5080079;28;20200;-87
2022/11/10 00:31:27;;;;;;;71.03;10.50;;;11.40;99.90;;;;;;5078765;28;20195;-87
2022/11/10 00:33:53;;;;;;;70.17;9.33;;;11.40;99.90;;;;;;5079984;28;20172;-87
2022/11/10 00:36:18;;;;;;;70.60;9.90;;;11.40;99.90;;;;;;5080004;28;20190;-87
2022/11/10 00:38:44;;;;;;;72.50;9.63;;;11.50;99.90;;;;;;5079557;28;20164;-87
2022/11/10 00:41:10;;;;;;;74.07;9.33;;;11.50;99.90;;;;;;5078149;28;20167;-87
2022/11/10 00:43:36;;;;;;;70.23;11.20;;;11.40;99.90;;;;;;5079913;28;20543;-87
2022/11/10 00:46:04;;;;;;;69.10;9.80;;;11.40;99.90;;;;;;5078863;28;20406;-87
2022/11/10 00:48:30;;;;;;;78.25;10.50;;;11.40;99.90;;;;;;5079746;28;20420;-87
2022/11/10 00:50:56;;;;;;;67.90;8.20;;;11.30;99.90;;;;;;5080017;28;20206;-87
2022/11/10 00:53:22;;;;;;;72.63;8.90;;;11.30;99.90;;;;;;5079877;28;20418;-87
2022/11/10 00:55:48;;;;;;;66.47;8.50;;;11.30;99.90;;;;;;5080055;28;20410;-87
2022/11/10 00:58:14;;;;;;;67.27;8.40;;;11.30;99.90;;;;;;5079865;28;20221;-87
2022/11/10 01:00:42;;;;;;;74.20;10.60;;;11.30;99.90;;;;;;5078133;28;20433;-87
2022/11/10 01:03:16;;;;;;;72.60;8.90;;;11.20;99.90;;;;;;5080435;28;20417;-87
2022/11/10 01:05:42;;;;;;;71.13;10.35;;;11.20;99.90;;;;;;5080250;28;20171;-87
2022/11/10 01:08:09;;;;;;;73.97;9.35;;;11.20;99.90;;;;;;5079737;28;20258;-87
2022/11/10 01:10:35;;;;;;;75.57;11.30;;;11.20;99.90;;;;;;5078829;28;20555;-87
2022/11/10 01:13:01;;;;;;;73.35;10.40;;;11.20;99.90;;;;;;5079523;28;20270;-87
2022/11/10 01:15:27;;;;;;;72.50;11.43;;;11.20;99.90;;;;;;5079256;28;20192;-87
2022/11/10 01:17:54;;;;;;;72.38;10.73;;;11.10;99.90;;;;;;5077592;28;20163;-87
2022/11/10 01:20:21;;;;;;;72.65;11.80;;;11.10;99.90;;;;;;5078192;28;20271;-87
2022/11/10 01:22:47;;;;;;;75.10;11.65;;;11.10;99.90;;;;;;5078258;28;20160;-87
2022/11/10 01:25:13;;;;;;;72.90;11.53;;;11.00;99.90;;;;;;5079717;28;20173;-87
2022/11/10 01:27:38;;;;;;;73.70;10.20;;;11.10;99.90;;;;;;5080422;28;20214;-87
2022/11/10 01:30:05;;;;;;;71.47;8.97;;;11.10;99.90;;;;;;5077872;28;20230;-87
2022/11/10 01:32:30;;;;;;;71.75;10.50;;;11.10;99.90;;;;;;5079771;28;20199;-87
2022/11/10 01:34:56;;;;;;;74.23;11.97;;;11.00;99.90;;;;;;5078723;28;20685;-87
2022/11/10 01:37:22;;;;;;;75.73;9.60;;;11.00;99.90;;;;;;5079349;28;20148;-87
2022/11/10 01:39:48;;;;;;;79.05;9.18;;;10.90;99.90;;;;;;5079598;28;20184;-87
2022/11/10 01:42:15;;;;;;;75.68;8.88;;;10.90;99.90;;;;;;5080614;28;20638;-87
2022/11/10 01:44:41;;;;;;;70.45;11.63;;;10.90;99.90;;;;;;5079167;28;20259;-87
2022/11/10 01:47:06;;;;;;;73.30;11.03;;;10.80;99.90;;;;;;5078419;28;20229;-87
2022/11/10 01:49:34;;;;;;;72.03;12.30;;;10.70;99.90;;;;;;5078284;28;20446;-87
2022/11/10 01:52:11;;;;;;;70.68;10.15;;;10.60;99.90;;;;;;5078188;28;20457;-87
2022/11/10 01:54:47;;;;;;;74.68;11.05;;;10.60;99.90;;;;;;5080000;28;20145;-87
2022/11/10 01:57:15;;;;;;;72.93;14.13;;;10.60;99.90;;;;;;5079895;28;20201;-87
2022/11/10 01:59:46;;;;;;;69.60;14.20;;;10.50;99.90;;;;;;5079115;28;20184;-87
2022/11/10 02:02:25;;;;;;;73.22;14.00;;;10.30;99.90;;;;;;5079148;28;20166;-87
2022/11/10 02:04:51;;;;;;;69.63;11.90;;;10.30;99.90;;;;;;5080367;28;20239;-87
2022/11/10 02:07:18;;;;;;;73.25;17.33;;;10.30;99.90;;;;;;5078810;28;20250;-87
2022/11/10 02:09:44;;;;;;;76.07;22.33;;;10.10;99.90;;;;;;5078642;28;20191;-87
2022/11/10 02:12:11;;;;;;;78.93;17.42;;;10.00;99.90;;;;;;5095050;28;20666;-87
2022/11/10 02:14:37;;;;;;;79.53;20.48;;;10.00;99.90;;;;;;5080788;28;20562;-87
2022/11/10 02:17:02;;;;;;;76.63;27.10;;;10.00;99.90;;;;;;5078890;28;20166;-87
2022/11/10 02:19:28;;;;;;;75.30;20.17;;;9.90;99.90;;;;;;5079494;28;20186;-87
2022/11/10 02:21:54;;;;;;;79.67;28.70;;;9.90;99.90;;;;;;5077864;28;20417;-87
2022/11/10 02:24:20;;;;;;;72.47;26.93;;;9.80;99.90;;;;;;5079548;28;20406;-87
2022/11/10 02:26:49;;;;;;;74.73;21.70;;;9.80;99.90;;;;;;5077689;28;20250;-87
2022/11/10 02:29:15;;;;;;;77.80;30.77;;;9.80;99.90;;;;;;5077741;28;20422;-87
2022/11/10 02:31:41;;;;;;;74.00;28.30;;;9.80;99.90;;;;;;5060709;28;20294;-87
2022/11/10 02:34:07;;;;;;;76.07;32.30;;;9.70;99.90;;;;;;5078880;28;20592;-87
2022/11/10 02:36:33;;;;;;;76.23;33.67;;;9.60;99.90;;;;;;5078900;28;20329;-87
2022/11/10 02:38:58;;;;;;;78.30;37.03;;;9.60;99.90;;;;;;5078948;28;20183;-87
2022/11/10 02:41:24;;;;;;;79.27;30.73;;;9.50;99.90;;;;;;5077684;28;20405;-87
2022/11/10 02:43:52;;;;;;;78.17;33.90;;;9.50;99.90;;;;;;5078753;28;20182;-87
2022/11/10 02:46:17;;;;;;;76.75;31.95;;;9.50;99.90;;;;;;5078930;28;20398;-87
2022/11/10 02:48:43;;;;;;;78.80;34.87;;;9.50;99.90;;;;;;5079075;28;20176;-87
2022/11/10 02:51:09;;;;;;;77.83;35.03;;;9.40;99.90;;;;;;5076801;28;20570;-87
2022/11/10 02:53:35;;;;;;;76.80;35.50;;;9.40;99.90;;;;;;5078316;28;20194;-87
2022/11/10 02:56:00;;;;;;;80.00;33.10;;;9.40;99.90;;;;;;5077969;28;20164;-87
2022/11/10 02:58:26;;;;;;;80.90;28.60;;;9.40;99.90;;;;;;5078127;28;20189;-87
2022/11/10 03:00:52;;;;;;;78.60;29.90;;;9.40;99.90;;;;;;5078404;28;20187;-87
2022/11/10 03:03:18;;;;;;;76.87;31.37;;;9.30;99.90;;;;;;5077889;28;20210;-87
2022/11/10 03:05:43;;;;;;;78.77;37.87;;;9.30;99.90;;;;;;5077882;28;20172;-87
2022/11/10 03:08:09;;;;;;;88.07;34.70;;;9.40;99.90;;;;;;5079056;28;20638;-87
2022/11/10 03:10:35;;;;;;;78.80;32.63;;;9.40;99.90;;;;;;5078114;28;20214;-87
2022/11/10 03:13:01;;;;;;;78.90;34.07;;;9.40;99.90;;;;;;5078409;28;20726;-87
2022/11/10 03:15:28;;;;;;;74.55;25.08;;;9.30;99.90;;;;;;5076649;28;20528;-87
2022/11/10 03:17:54;;;;;;;76.40;26.20;;;9.20;99.90;;;;;;5078279;28;20165;-87
2022/11/10 03:20:20;;;;;;;82.57;25.27;;;9.30;99.90;;;;;;5076436;28;20184;-87
2022/11/10 03:22:46;;;;;;;76.07;20.30;;;9.20;99.90;;;;;;5078882;28;20174;-87
2022/11/10 03:25:12;;;;;;;70.32;19.05;;;9.20;99.90;;;;;;5082560;28;20437;-87
2022/11/10 03:27:38;;;;;;;72.35;18.27;;;9.20;99.90;;;;;;5083340;28;20653;-87
2022/11/10 03:30:05;;;;;;;73.43;23.00;;;9.10;99.90;;;;;;5083005;28;20188;-87
2022/11/10 03:32:31;;;;;;;77.95;27.42;;;9.10;99.90;;;;;;5083314;28;20202;-87
2022/11/10 03:34:57;;;;;;;75.87;24.13;;;9.10;99.90;;;;;;5081181;28;20187;-87
2022/11/10 03:37:23;;;;;;;73.20;26.50;;;9.10;99.90;;;;;;5082951;28;20853;-87
2022/11/10 03:39:48;;;;;;;72.20;23.00;;;9.00;99.90;;;;;;5082496;28;20184;-87
2022/11/10 03:42:14;;;;;;;73.67;22.50;;;9.00;99.90;;;;;;5082802;28;20168;-87
2022/11/10 03:44:40;;;;;;;70.90;16.40;;;9.00;99.90;;;;;;5082516;28;20226;-87
2022/11/10 03:47:06;;;;;;;70.57;17.60;;;9.00;99.90;;;;;;5082924;28;20164;-87
2022/11/10 03:49:31;;;;;;;69.40;17.50;;;9.00;99.90;;;;;;5082786;28;20202;-87
2022/11/10 03:51:57;;;;;;;73.63;22.33;;;9.00;99.90;;;;;;5083515;28;20229;-87
2022/11/10 03:54:23;;;;;;;74.20;17.17;;;9.10;99.90;;;;;;5085265;28;20175;-87
2022/11/10 03:56:49;;;;;;;72.37;18.30;;;9.20;99.90;;;;;;5081973;28;20164;-87
2022/11/10 03:59:14;;;;;;;77.00;21.30;;;9.10;99.90;;;;;;5082697;28;20681;-87
2022/11/10 04:01:40;;;;;;;72.93;18.00;;;9.20;99.90;;;;;;5080914;28;20186;-87
2022/11/10 04:08:57;;;;;;;73.43;16.57;;;9.20;99.90;;;;;;5081092;28;20171;-87
2022/11/10 04:09:39;;;;;;;77.15;23.75;;;9.20;99.90;;;;;;5082681;28;20218;-87
2022/11/10 04:17:39;;;;;;;72.25;23.92;;;9.30;99.90;;;;;;5082083;28;20167;-87
2022/11/10 04:20:05;;;;;;;75.60;26.10;;;9.30;99.90;;;;;;5079663;28;20188;-87
2022/11/10 04:25:15;;;;;;;88.30;29.63;;;9.30;99.90;;;;;;5081862;28;20604;-87
2022/11/10 04:27:41;;;;;;;73.80;30.33;;;9.20;99.90;;;;;;5079731;28;20207;-87
2022/11/10 04:30:07;;;;;;;76.90;31.47;;;9.10;99.90;;;;;;5080924;28;20528;-87
2022/11/10 04:32:33;;;;;;;74.20;26.17;;;9.10;99.90;;;;;;5080868;28;20225;-87
2022/11/10 04:34:59;;;;;;;79.50;30.90;;;9.00;99.90;;;;;;5079829;28;20172;-87
2022/11/10 04:37:24;;;;;;;73.23;28.90;;;9.00;99.90;;;;;;5081001;28;20152;-87
2022/11/10 04:39:50;;;;;;;74.10;20.47;;;8.90;99.90;;;;;;5081150;28;20179;-87
2022/11/10 04:42:16;;;;;;;72.00;21.97;;;8.80;99.90;;;;;;5081058;28;20195;-87
2022/11/10 04:44:42;;;;;;;82.68;24.08;;;8.70;99.90;;;;;;5080203;28;20176;-87
2022/11/10 04:47:07;;;;;;;72.30;18.17;;;8.80;99.90;;;;;;5080619;28;20171;-87
2022/11/10 04:49:33;;;;;;;70.83;18.63;;;8.70;99.90;;;;;;5080292;28;20279;-87
2022/11/10 04:51:59;;;;;;;75.00;19.27;;;8.70;99.90;;;;;;5079978;28;20192;-87
2022/11/10 04:54:24;;;;;;;73.10;15.70;;;8.70;99.90;;;;;;5079562;28;20631;-87
2022/11/10 04:56:50;;;;;;;73.93;15.27;;;8.60;99.90;;;;;;5080073;28;20632;-87
2022/11/10 04:59:16;;;;;;;72.07;16.37;;;8.60;99.90;;;;;;5080054;28;20186;-87
2022/11/10 05:01:42;;;;;;;78.37;16.60;;;8.60;99.90;;;;;;5081170;28;20175;-87
2022/11/10 05:04:07;;;;;;;69.90;15.33;;;8.60;99.90;;;;;;5081367;28;20174;-87
2022/11/10 05:06:33;;;;;;;72.10;15.60;;;8.60;99.90;;;;;;5081890;28;20168;-87
2022/11/10 05:08:59;;;;;;;73.83;17.00;;;8.50;99.90;;;;;;5081366;28;20242;-87
2022/11/10 05:11:25;;;;;;;69.50;16.13;;;8.50;99.90;;;;;;5080537;28;20190;-87
2022/11/10 05:13:51;;;;;;;70.40;15.85;;;8.40;99.90;;;;;;5080795;28;20190;-87
2022/11/10 05:16:17;;;;;;;71.03;17.17;;;8.40;99.90;;;;;;5081404;28;20160;-87
2022/11/10 05:18:43;;;;;;;69.47;16.20;;;8.40;99.90;;;;;;5080564;28;20164;-87
2022/11/10 05:21:09;;;;;;;71.20;17.20;;;8.40;99.90;;;;;;5079903;28;20414;-87
2022/11/10 05:23:38;;;;;;;73.35;19.90;;;8.30;99.90;;;;;;5080207;28;20171;-87
2022/11/10 05:26:10;;;;;;;76.13;19.58;;;8.30;99.90;;;;;;5080347;28;20627;-87
2022/11/10 05:28:36;;;;;;;82.15;24.25;;;8.30;99.90;;;;;;5080840;28;20182;-87
2022/11/10 05:31:02;;;;;;;71.80;20.30;;;8.30;99.90;;;;;;5080346;28;20191;-87
2022/11/10 05:33:27;;;;;;;71.18;22.33;;;8.20;99.90;;;;;;5079078;28;20164;-87
2022/11/10 05:35:53;;;;;;;78.13;19.50;;;8.20;99.90;;;;;;5146059;23;20219;-85
2022/11/10 05:38:19;;;;;;;75.90;15.57;;;8.20;99.90;;;;;;5081928;28;20156;-85
2022/11/10 05:40:49;;;;;;;71.93;16.35;;;8.10;99.90;;;;;;5076953;28;20216;-85
2022/11/10 05:43:15;;;;;;;70.30;15.73;;;8.10;99.90;;;;;;5061626;28;20164;-85
2022/11/10 05:45:41;;;;;;;70.87;15.80;;;8.20;99.90;;;;;;5060900;28;20192;-85
2022/11/10 05:48:07;;;;;;;69.40;15.57;;;8.30;99.90;;;;;;5061155;28;20732;-85
2022/11/10 05:50:33;;;;;;;71.83;16.40;;;8.40;99.90;;;;;;5061166;28;20422;-85
2022/11/10 05:52:58;;;;;;;72.60;17.70;;;8.40;99.90;;;;;;5060785;28;20477;-85
2022/11/10 05:55:27;;;;;;;70.00;16.70;;;8.40;99.90;;;;;;5077395;28;20164;-85
2022/11/10 05:57:55;;;;;;;74.93;18.70;;;8.30;99.90;;;;;;5060698;28;20161;-85
2022/11/10 06:00:23;;;;;;;70.78;18.23;;;8.30;99.90;;;;;;5060999;28;20211;-85
2022/11/10 06:02:57;;;;;;;72.90;17.95;;;8.20;99.90;;;;;;5061376;28;20540;-85
2022/11/10 06:05:22;;;;;;;74.63;18.13;;;8.20;99.90;;;;;;5076172;28;20168;-85
2022/11/10 06:07:48;;;;;;;74.73;15.20;;;8.30;99.90;;;;;;5061273;28;20179;-85
2022/11/10 06:10:14;;;;;;;76.17;15.40;;;8.30;99.90;;;;;;5061204;28;20248;-85
2022/11/10 06:12:39;;;;;;;75.50;17.87;;;8.40;99.90;;;;;;5061099;28;20200;-85
2022/11/10 06:15:07;;;;;;;71.93;14.17;;;8.40;99.90;;;;;;5060166;28;20407;-85
2022/11/10 06:17:32;;;;;;;71.15;15.30;;;8.40;99.90;;;;;;5076112;28;20540;-85
2022/11/10 06:19:58;;;;;;;73.23;14.33;;;8.40;99.90;;;;;;5062196;28;20180;-85
2022/11/10 06:22:26;;;;;;;76.37;17.00;;;8.40;99.90;;;;;;5078591;28;20640;-85
2022/11/10 06:24:52;;;;;;;74.60;18.40;;;8.40;99.90;;;;;;5062900;28;20164;-85
2022/11/10 06:27:18;;;;;;;77.60;18.33;;;8.30;99.90;;;;;;5078656;28;20180;-85
2022/11/10 06:29:44;;;;;;;72.97;18.73;;;8.30;99.90;;;;;;5061543;28;20184;-85
2022/11/10 06:32:10;;;;;;;72.90;19.40;;;8.30;99.90;;;;;;5061234;28;20188;-85
2022/11/10 06:34:36;;;;;;;79.70;20.05;;;8.30;99.90;;;;;;5078420;28;20183;-85
2022/11/10 06:37:02;;;;;;;73.83;17.17;;;8.20;99.90;;;;;;5063276;28;20176;-85
2022/11/10 06:39:28;;;;;;;78.10;18.70;;;8.20;99.90;;;;;;5062956;28;20686;-85
2022/11/10 06:41:53;;;;;;;74.47;20.53;;;8.20;99.90;;;;;;5062781;28;20168;-85
2022/11/10 06:44:19;;;;;;;79.77;16.87;;;8.20;99.90;;;;;;5063085;28;20429;-85
2022/11/10 06:46:45;;;;;;;80.17;17.87;;;8.30;99.90;;;;;;5062871;28;20598;-84
2022/11/10 06:49:10;;;;;;;79.33;18.00;;;8.30;99.90;;;;;;5062789;28;20590;-85
2022/11/10 06:51:36;;;;;;;77.73;16.67;;;8.40;99.90;;;;;;5063216;28;20493;-85
2022/11/10 06:54:02;;;;;;;80.93;17.97;;;8.40;99.90;;;;;;5062904;28;20164;-85
2022/11/10 06:56:30;;;;;;;82.60;17.40;;;8.50;99.90;;;;;;5061870;28;20682;-85
2022/11/10 06:58:56;;;;;;;82.18;15.20;;;8.50;99.90;;;;;;5063695;28;20196;-85
2022/11/10 07:01:25;;;;;;;80.70;16.70;;;8.60;99.90;;;;;;5068041;28;20152;-85
2022/11/10 07:03:52;;;;;;;83.32;18.02;;;8.70;99.90;;;;;;5082266;28;20532;-85
2022/11/10 07:06:18;;;;;;;73.50;18.60;;;8.80;99.90;;;;;;5065368;28;20192;-85
2022/11/10 07:08:44;;;;;;;76.22;21.05;;;8.90;99.90;;;;;;5065219;28;20516;-85
2022/11/10 07:11:10;;;;;;;74.57;22.43;;;9.10;99.90;;;;;;5064690;28;20176;-85
2022/11/10 07:13:35;;;;;;;78.43;18.63;;;9.20;99.90;;;;;;5081974;28;20503;-85
2022/11/10 07:16:06;;;;;;;78.70;18.40;;;9.40;99.90;;;;;;5065500;28;20399;-85
2022/11/10 07:18:32;;;;;;;81.72;20.02;;;9.50;99.90;;;;;;5065044;28;20157;-85
2022/11/10 07:20:58;;;;;;;73.75;16.38;;;9.50;99.90;;;;;;5065487;28;20216;-85
2022/11/10 07:23:23;;;;;;;73.97;17.63;;;9.60;99.90;;;;;;5064072;28;20172;-85
2022/11/10 07:25:49;;;;;;;84.87;16.87;;;9.70;99.90;;;;;;5063530;28;20635;-86
2022/11/10 07:28:15;;;;;;;81.00;17.97;;;9.80;99.90;;;;;;5063058;28;20152;-86
2022/11/10 07:30:41;;;;;;;77.00;21.80;;;9.80;99.90;;;;;;5062717;28;20422;-85
2022/11/10 07:33:11;;;;;;;77.03;21.07;;;9.80;99.90;;;;;;5079169;28;20200;-85
2022/11/10 07:35:37;;;;;;;76.55;18.92;;;9.80;99.90;;;;;;5077933;28;20555;-85
2022/11/10 07:38:09;;;;;;;78.75;17.25;;;9.80;99.90;;;;;;5078277;28;20165;-85
2022/11/10 07:40:36;;;;;;;78.22;19.92;;;9.90;99.90;;;;;;5079160;28;20275;-86
2022/11/10 07:43:02;;;;;;;76.15;22.17;;;9.90;99.90;;;;;;5063080;28;20165;-85
2022/11/10 07:45:28;;;;;;;83.23;21.00;;;9.90;99.90;;;;;;5077627;28;20175;-85
2022/11/10 07:48:00;;;;;;;76.85;19.55;;;9.90;99.90;;;;;;5062311;28;20470;-84
2022/11/10 07:50:30;;;;;;;75.30;23.73;;;10.00;99.90;;;;;;5063521;28;20706;-85
2022/11/10 07:53:16;;;;;;;78.82;26.13;;;10.00;99.90;;;;;;5063103;28;20215;-85
2022/11/10 07:55:43;;;;;;;81.47;26.10;;;10.10;99.90;;;;;;5063139;28;20157;-85
2022/11/10 07:58:11;;;;;;;78.43;25.10;;;10.10;99.90;;;;;;5062874;28;20220;-85
2022/11/10 08:00:38;;;;;;;76.68;22.77;;;10.10;99.90;;;;;;5078908;28;20188;-85
2022/11/10 08:03:06;;;;;;;75.25;26.00;;;10.20;99.90;;;;;;5078855;28;20169;-85
2022/11/10 08:05:33;;;;;;;76.32;21.98;;;10.20;99.90;;;;;;5061916;28;20277;-85
2022/11/10 08:07:59;;;;;;;75.40;27.25;;;10.30;99.90;;;;;;5062919;28;20219;-85
2022/11/10 08:10:26;;;;;;;82.75;24.92;;;10.30;99.90;;;;;;5063667;28;20185;-85
2022/11/10 08:12:54;;;;;;;75.28;27.13;;;10.30;99.90;;;;;;5078683;28;20219;-85
2022/11/10 08:15:20;;;;;;;80.65;27.13;;;10.40;99.90;;;;;;5061935;28;20632;-85
2022/11/10 08:17:45;;;;;;;83.70;24.27;;;10.40;99.90;;;;;;5061307;28;20243;-84
2022/11/10 08:20:11;;;;;;;86.03;27.00;;;10.50;99.90;;;;;;5077231;28;20668;-85
2022/11/10 08:22:36;;;;;;;78.20;25.27;;;10.50;99.90;;;;;;5062751;28;20190;-85
2022/11/10 08:25:02;;;;;;;83.80;31.40;;;10.60;99.90;;;;;;5063684;28;20514;-85
2022/11/10 08:27:28;;;;;;;82.17;28.57;;;10.70;99.90;;;;;;5061625;28;20642;-85
2022/11/10 08:29:54;;;;;;;81.50;23.97;;;10.70;99.90;;;;;;5061960;28;20426;-85
2022/11/10 08:32:20;;;;;;;80.77;24.63;;;10.80;99.90;;;;;;5062596;28;20606;-84
2022/11/10 08:34:45;;;;;;;77.93;29.17;;;10.80;99.90;;;;;;5064094;28;20215;-85
2022/11/10 08:37:11;;;;;;;80.87;22.80;;;10.80;99.90;;;;;;5063813;28;20420;-85
2022/11/10 08:39:37;;;;;;;78.57;25.07;;;10.90;99.90;;;;;;5079380;28;20488;-85
2022/11/10 08:42:03;;;;;;;77.47;26.97;;;10.90;99.90;;;;;;5063041;28;20166;-85
2022/11/10 08:44:28;;;;;;;81.33;30.93;;;11.00;99.90;;;;;;5062408;28;20271;-85
2022/11/10 08:46:54;;;;;;;77.60;23.50;;;11.10;99.90;;;;;;5075190;28;20419;-85
2022/11/10 08:49:20;;;;;;;79.67;22.40;;;11.10;99.90;;;;;;5059922;28;20180;-85
2022/11/10 08:51:46;;;;;;;81.90;21.60;;;11.20;99.90;;;;;;5059788;28;20193;-84
2022/11/10 08:54:11;;;;;;;82.57;22.97;;;11.30;99.90;;;;;;5077559;28;20161;-85
2022/11/10 08:56:37;;;;;;;77.90;20.73;;;11.30;99.90;;;;;;5061241;28;20402;-85
2022/11/10 08:59:02;;;;;;;76.10;18.00;;;11.40;99.90;;;;;;5061095;28;20656;-85
2022/11/10 09:01:28;;;;;;;81.53;20.77;;;11.40;99.90;;;;;;5061851;28;20168;-85
2022/11/10 09:03:54;;;;;;;89.10;23.60;;;11.50;99.90;;;;;;5060780;28;20165;-85
2022/11/10 09:06:23;;;;;;;82.07;23.80;;;11.50;99.90;;;;;;5076007;28;20198;-85
2022/11/10 09:08:48;;;;;;;81.15;18.58;;;11.60;99.90;;;;;;5060035;28;20211;-85
2022/11/10 09:11:14;;;;;;;76.90;20.10;;;11.70;99.90;;;;;;5060740;28;20168;-85
2022/11/10 09:13:40;;;;;;;81.70;21.60;;;11.70;99.90;;;;;;5060793;28;20191;-85
2022/11/10 09:16:21;;;;;;;82.57;22.00;;;11.80;99.90;;;;;;5073511;28;20183;-84
2022/11/10 09:18:46;;;;;;;83.43;19.00;;;11.90;99.90;;;;;;5060817;28;20153;-85
2022/11/10 09:21:18;;;;;;;79.17;16.23;;;11.90;99.90;;;;;;5060751;28;20527;-85
2022/11/10 09:23:44;;;;;;;75.20;14.32;;;12.00;99.90;;;;;;5076918;28;20605;-85
2022/11/10 09:26:11;;;;;;;78.47;12.63;;;12.10;99.90;;;;;;5060975;28;20164;-84
2022/11/10 09:28:36;;;;;;;82.57;15.15;;;12.20;99.90;;;;;;5074263;28;20186;-85
2022/11/10 09:31:02;;;;;;;72.30;8.57;;;12.20;99.90;;;;;;5060141;28;20164;-84
2022/11/10 09:33:28;;;;;;;77.43;9.30;;;12.30;99.90;;;;;;5075311;28;20168;-84
2022/11/10 09:35:58;;;;;;;70.77;6.87;;;12.40;99.90;;;;;;5059370;28;20234;-85
2022/11/10 09:38:24;;;;;;;79.85;7.65;;;12.50;99.90;;;;;;5076132;28;20165;-85
2022/11/10 09:41:01;;;;;;;74.45;7.45;;;12.60;99.90;;;;;;5075798;28;20215;-85
2022/11/10 09:43:43;;;;;;;75.10;5.87;;;12.60;99.90;;;;;;5059657;28;20204;-85
2022/11/10 09:46:19;;;;;;;73.65;6.63;;;12.70;99.90;;;;;;5059563;28;20383;-84
2022/11/10 09:48:52;;;;;;;71.57;7.22;;;12.80;99.90;;;;;;5059241;28;20179;-84
2022/11/10 09:51:24;;;;;;;77.07;8.60;;;12.80;99.90;;;;;;5060245;28;20149;-85
2022/11/10 09:53:54;;;;;;;74.28;7.65;;;12.80;99.90;;;;;;5074282;28;20153;-84
2022/11/10 09:56:34;;;;;;;71.40;6.28;;;12.90;99.90;;;;;;5073412;28;20163;-84
2022/11/10 09:59:06;;;;;;;79.68;7.55;;;13.00;99.90;;;;;;5058010;28;20177;-84
2022/11/10 10:01:54;;;;;;;70.13;5.22;;;13.10;99.90;;;;;;5058365;28;20156;-84
2022/11/10 10:04:34;;;;;;;73.03;4.95;;;13.20;99.90;;;;;;5058198;28;20207;-84
2022/11/10 10:07:12;;;;;;;67.25;4.82;;;13.20;99.90;;;;;;5058790;28;20206;-84
2022/11/10 10:09:46;;;;;;;73.18;5.22;;;13.40;99.90;;;;;;5057884;28;20202;-84
2022/11/10 10:12:35;;;;;;;73.25;5.55;;;13.60;99.90;;;;;;5058076;28;20178;-84
2022/11/10 10:15:16;;;;;;;72.78;5.22;;;13.70;99.90;;;;;;5058135;28;20149;-85
2022/11/10 10:18:14;;;;;;;70.93;5.23;;;13.70;99.90;;;;;;5057840;28;20176;-84
2022/11/10 10:21:06;;;;;;;75.17;6.13;;;13.70;99.90;;;;;;5057106;28;20472;-84
2022/11/10 10:23:39;;;;;;;74.97;5.00;;;13.80;99.90;;;;;;5057502;28;20869;-84
2022/11/10 10:26:14;;;;;;;71.90;4.10;;;13.90;99.90;;;;;;5058176;28;20387;-84
2022/11/10 10:28:44;;;;;;;70.10;4.90;;;14.00;99.90;;;;;;5074719;28;20402;-85
2022/11/10 10:31:24;;;;;;;73.63;5.13;;;14.10;99.90;;;;;;5074367;28;20428;-84
2022/11/10 10:33:51;;;;;;;69.33;5.10;;;14.10;97.30;;;;;;5059533;28;20399;-85
2022/11/10 10:36:23;;;;;;;74.40;4.20;;;14.10;95.00;;;;;;5059298;28;20426;-85
2022/11/10 10:38:53;;;;;;;77.03;4.70;;;14.10;98.60;;;;;;5074792;28;20395;-85
2022/11/10 10:41:26;;;;;;;72.83;6.50;;;14.30;95.70;;;;;;5059619;28;20399;-85
2022/11/10 10:43:55;;;;;;;71.33;4.03;;;14.30;93.80;;;;;;5059688;28;20384;-84
2022/11/10 10:46:30;;;;;;;73.03;4.63;;;14.40;91.30;;;;;;5059368;28;20758;-84
2022/11/10 10:49:11;;;;;;;68.27;4.60;;;14.50;89.40;;;;;;5059416;28;20383;-85
2022/11/10 10:51:36;;;;;;;68.70;5.37;;;14.50;91.30;;;;;;5059404;28;20514;-84
2022/11/10 10:54:02;;;;;;;74.40;5.77;;;14.60;76.90;;;;;;5059137;28;20437;-84
2022/11/10 10:56:32;;;;;;;69.40;5.70;;;14.60;83.30;;;;;;5074913;28;20165;-85
2022/11/10 10:59:01;;;;;;;68.90;5.93;;;14.60;77.10;;;;;;5059880;28;20217;-84
2022/11/10 11:01:31;;;;;;;74.97;5.73;;;14.60;84.10;;;;;;5059340;28;20400;-85
2022/11/10 11:03:58;;;;;;;70.83;5.93;;;14.70;73.00;;;;;;5060759;28;20419;-85
2022/11/10 11:06:26;;;;;;;66.97;5.37;;;14.90;81.60;;;;;;5060941;28;20422;-85
2022/11/10 11:09:09;;;;;;;69.27;5.90;;;14.70;68.10;;;;;;5075293;28;20411;-84
2022/11/10 11:11:37;;;;;;;69.57;6.40;;;14.80;76.20;;;;;;5060760;28;20457;-84
2022/11/10 11:14:23;;;;;;;74.00;6.17;;;14.70;62.50;;;;;;5079197;28;20494;-84
2022/11/10 11:17:17;;;;;;;67.33;4.87;;;14.70;61.90;;;;;;5073840;28;20926;-84
2022/11/10 11:19:43;;;;;;;71.17;6.33;;;14.80;60.80;;;;;;5073140;28;20522;-83
2022/11/10 11:22:11;;;;;;;72.83;4.50;;;14.90;67.00;;;;;;5057213;28;20447;-84
2022/11/10 11:25:00;;;;;;;69.87;5.47;;;15.10;55.20;;;;;;5073028;28;20455;-84
2022/11/10 11:27:45;;;;;;;73.63;4.70;;;15.10;51.80;;;;;;5058578;28;20376;-85
2022/11/10 11:30:22;;;;;;;69.27;5.20;;;15.40;56.30;;;;;;5058961;28;20419;-84
2022/11/10 11:33:10;;;;;;;67.57;3.80;;;15.30;55.20;;;;;;5059146;28;20773;-85
2022/11/10 11:38:48;;;;;;;69.17;3.80;;;15.30;46.40;;;;;;5146346;23;20480;-84
2022/11/10 11:41:51;;;;;;;68.63;3.83;;;15.40;46.70;;;;;;5057680;28;20503;-84
2022/11/10 11:44:20;;;;;;;71.77;3.40;;;15.50;45.00;;;;;;5060709;28;20473;-84
2022/11/10 11:47:20;;;;;;;75.43;3.80;;;15.50;40.40;;;;;;5060851;28;20410;-84
2022/11/10 11:50:21;;;;;;;66.67;3.00;;;15.60;39.70;;;;;;5060817;28;20430;-84
2022/11/10 11:53:02;;;;;;;67.57;2.77;;;15.50;34.70;;;;;;5061171;28;20525;-84
2022/11/10 11:55:57;;;;;;;69.40;3.20;;;15.30;43.90;;;;;;5062108;28;20413;-83
2022/11/10 11:58:46;;;;;;;69.03;3.10;;;15.10;43.90;;;;;;5061700;28;20770;-84
2022/11/10 12:01:18;;;;;;;67.30;3.73;;;15.00;48.50;;;;;;5061397;28;20408;-84
2022/11/10 12:04:05;;;;;;;70.33;4.93;;;15.00;53.80;;;;;;5061320;28;20469;-84
2022/11/10 12:06:40;;;;;;;70.07;3.80;;;15.10;53.80;;;;;;5061880;28;20394;-84
2022/11/10 12:09:30;;;;;;;75.07;4.17;;;14.90;53.60;;;;;;5060873;28;20761;-84
2022/11/10 12:12:24;;;;;;;69.17;3.90;;;14.80;51.00;;;;;;5062449;28;20439;-84
2022/11/10 12:15:00;;;;;;;65.87;3.80;;;14.80;56.50;;;;;;5061326;28;20388;-83
2022/11/10 12:17:28;;;;;;;72.10;3.83;;;14.80;57.00;;;;;;5059195;28;20422;-83
2022/11/10 12:20:02;;;;;;;71.70;4.17;;;14.90;51.90;;;;;;5060401;28;20477;-84
2022/11/10 12:23:00;;;;;;;69.60;3.90;;;14.90;52.90;;;;;;5061796;28;20918;-84
2022/11/10 12:25:33;;;;;;;74.30;5.10;;;15.00;53.60;;;;;;5058426;28;20420;-84
2022/11/10 12:28:09;;;;;;;68.60;3.90;;;14.90;54.00;;;;;;5060700;28;20377;-83
2022/11/10 12:30:36;;;;;;;68.07;3.50;;;14.90;47.70;;;;;;5061480;28;20877;-84
2022/11/10 12:33:30;;;;;;;71.20;3.90;;;15.00;48.80;;;;;;5062076;28;20449;-84
2022/11/10 12:36:03;;;;;;;72.60;3.40;;;15.00;40.20;;;;;;5062398;28;20396;-85
2022/11/10 12:38:43;;;;;;;72.60;3.57;;;15.00;44.40;;;;;;5061699;28;20415;-83
2022/11/10 12:41:14;;;;;;;67.80;4.67;;;15.00;45.00;;;;;;5060191;28;20977;-84
2022/11/10 12:44:02;;;;;;;72.17;4.00;;;15.10;45.90;;;;;;5064357;28;20379;-83
2022/11/10 12:46:28;;;;;;;68.17;3.90;;;15.20;39.80;;;;;;5062291;28;20466;-83
2022/11/10 12:49:29;;;;;;;70.00;3.23;;;15.10;37.90;;;;;;5062353;28;20427;-83
2022/11/10 12:52:16;;;;;;;68.23;3.47;;;15.10;37.60;;;;;;5062172;28;20525;-84
2022/11/10 12:54:44;;;;;;;69.07;3.57;;;15.10;33.60;;;;;;5063063;28;20856;-84
2022/11/10 12:57:15;;;;;;;67.87;3.37;;;15.20;37.50;;;;;;5061544;28;20906;-84
2022/11/10 13:00:03;;;;;;;73.07;3.53;;;15.10;34.90;;;;;;5062333;28;20782;-83
2022/11/10 13:02:29;;;;;;;71.67;4.00;;;15.20;31.40;;;;;;5063378;28;20405;-84
2022/11/10 13:05:13;;;;;;;66.70;3.33;;;15.10;31.80;;;;;;5063297;28;20446;-84